createdAt,value
2023-04-18T00:01:43.909Z,10.30
2023-04-18T00:04:49.947Z,10.20
2023-04-18T00:07:53.747Z,10.20
2023-04-18T00:11:01.401Z,10.20
2023-04-18T00:14:05.822Z,10.10
2023-04-18T00:17:12.803Z,10.10
2023-04-18T00:20:16.654Z,10.00
2023-04-18T00:23:22.857Z,10.00
2023-04-18T00:26:28.741Z,10.00
2023-04-18T00:29:35.818Z,9.90
2023-04-18T00:32:39.636Z,9.90
2023-04-18T00:35:45.582Z,9.90
2023-04-18T00:38:50.724Z,9.90
2023-04-18T00:41:58.376Z,9.80
2023-04-18T00:45:02.925Z,9.80
2023-04-18T00:48:10.592Z,9.80
2023-04-18T00:51:14.555Z,9.80
2023-04-18T00:54:24.745Z,9.70
2023-04-18T00:57:30.967Z,9.70
2023-04-18T01:00:37.140Z,9.70
2023-04-18T01:03:41.181Z,9.70
2023-04-18T01:06:47.107Z,9.70
2023-04-18T01:09:50.768Z,10.20
2023-04-18T01:13:13.424Z,9.60
2023-04-18T01:16:17.112Z,9.60
2023-04-18T01:19:22.849Z,9.60
2023-04-18T01:22:26.765Z,9.60
2023-04-18T01:25:35.536Z,9.50
2023-04-18T01:28:39.318Z,9.60
2023-04-18T01:31:47.018Z,9.50
2023-04-18T01:34:52.579Z,9.50
2023-04-18T01:37:58.734Z,9.50
2023-04-18T01:41:06.165Z,9.50
2023-04-18T01:44:12.113Z,9.40
2023-04-18T01:47:16.169Z,9.40
2023-04-18T01:50:22.085Z,9.40
2023-04-18T01:53:25.944Z,9.30
2023-04-18T01:56:33.540Z,9.30
2023-04-18T01:59:38.139Z,9.30
2023-04-18T02:02:44.169Z,9.30
2023-04-18T02:05:48.565Z,9.20
2023-04-18T02:08:54.222Z,9.20
2023-04-18T02:12:02.274Z,9.20
2023-04-18T02:15:08.710Z,9.20
2023-04-18T02:18:13.372Z,9.20
2023-04-18T02:21:19.058Z,9.10
2023-04-18T02:24:23.077Z,9.20
2023-04-18T02:27:30.691Z,9.20
2023-04-18T02:30:34.756Z,9.20
2023-04-18T02:33:41.635Z,9.20
2023-04-18T02:36:45.381Z,9.20
2023-04-18T02:39:51.487Z,9.20
2023-04-18T02:42:57.665Z,9.20
2023-04-18T02:46:03.505Z,9.20
2023-04-18T02:49:07.265Z,9.20
2023-04-18T02:52:13.041Z,9.20
2023-04-18T02:55:16.785Z,9.20
2023-04-18T02:58:25.809Z,9.20
2023-04-18T03:01:49.499Z,9.20
2023-04-18T03:04:57.867Z,9.20
2023-04-18T03:08:02.023Z,9.20
2023-04-18T03:11:08.262Z,9.20
2023-04-18T03:14:14.523Z,9.20
2023-04-18T03:17:28.698Z,9.20
2023-04-18T03:20:32.499Z,9.20
2023-04-18T03:23:38.250Z,9.20
2023-04-18T03:26:43.409Z,9.20
2023-04-18T03:29:51.543Z,9.20
2023-04-18T03:32:55.580Z,9.20
2023-04-18T03:36:01.378Z,9.20
2023-04-18T03:39:05.322Z,9.20
2023-04-18T03:42:11.022Z,9.20
2023-04-18T03:45:18.154Z,9.20
2023-04-18T03:48:25.640Z,9.10
2023-04-18T03:51:31.460Z,9.10
2023-04-18T03:54:37.194Z,9.20
2023-04-18T03:57:41.494Z,9.20
2023-04-18T04:00:53.405Z,9.20
2023-04-18T04:03:57.325Z,9.20
2023-04-18T04:07:03.333Z,9.20
2023-04-18T04:10:07.686Z,9.20
2023-04-18T04:13:13.552Z,9.10
2023-04-18T04:16:20.335Z,9.10
2023-04-18T04:19:28.413Z,9.10
2023-04-18T04:22:43.389Z,9.10
2023-04-18T04:25:49.237Z,9.10
2023-04-18T04:29:10.214Z,9.10
2023-04-18T04:32:20.001Z,9.10
2023-04-18T04:35:24.041Z,9.10
2023-04-18T04:38:30.365Z,9.10
2023-04-18T04:41:37.048Z,9.10
2023-04-18T04:44:43.730Z,9.10
2023-04-18T04:47:49.542Z,9.10
2023-04-18T04:50:56.158Z,9.10
2023-04-18T04:54:00.059Z,9.10
2023-04-18T04:57:06.278Z,9.10
2023-04-18T05:00:10.728Z,9.10
2023-04-18T05:03:18.568Z,9.00
2023-04-18T05:06:22.484Z,9.10
2023-04-18T05:09:28.209Z,9.10
2023-04-18T05:12:31.953Z,9.00
2023-04-18T05:15:37.635Z,9.00
2023-04-18T05:18:43.264Z,9.00
2023-04-18T05:21:48.956Z,9.10
2023-04-18T05:24:52.663Z,9.00
2023-04-18T05:27:59.452Z,9.10
2023-04-18T05:31:03.267Z,9.10
2023-04-18T05:34:11.077Z,9.10
2023-04-18T05:37:14.915Z,9.10
2023-04-18T05:40:20.686Z,9.10
2023-04-18T05:43:24.520Z,9.10
2023-04-18T05:46:30.288Z,9.10
2023-04-18T05:49:35.964Z,9.20
2023-04-18T05:52:41.742Z,9.10
2023-04-18T05:55:46.188Z,9.20
2023-04-18T05:58:51.866Z,9.20
2023-04-18T06:01:56.004Z,9.20
2023-04-18T06:05:03.839Z,9.20
2023-04-18T06:08:07.711Z,9.20
2023-04-18T06:11:14.524Z,9.30
2023-04-18T06:14:18.164Z,9.20
2023-04-18T06:17:23.872Z,9.20
2023-04-18T06:20:29.471Z,9.30
2023-04-18T06:23:35.226Z,9.40
2023-04-18T06:26:38.946Z,9.40
2023-04-18T06:29:44.710Z,9.40
2023-04-18T06:32:48.418Z,9.40
2023-04-18T06:35:56.089Z,9.50
2023-04-18T06:38:59.722Z,9.60
2023-04-18T06:42:05.619Z,9.70
2023-04-18T06:45:10.279Z,9.80
2023-04-18T06:48:16.054Z,9.90
2023-04-18T06:51:21.658Z,10.10
2023-04-18T06:54:27.379Z,10.10
2023-04-18T06:57:31.087Z,10.20
2023-04-18T07:00:36.833Z,10.30
2023-04-18T07:03:40.775Z,10.30
2023-04-18T07:06:48.375Z,10.40
2023-04-18T07:09:52.274Z,10.40
2023-04-18T07:12:58.058Z,10.40
2023-04-18T07:16:01.807Z,10.40
2023-04-18T07:19:07.887Z,10.50
2023-04-18T07:22:13.487Z,10.50
2023-04-18T07:25:19.494Z,10.50
2023-04-18T07:28:23.219Z,10.60
2023-04-18T07:31:30.752Z,10.60
2023-04-18T07:34:35.655Z,10.60
2023-04-18T07:37:43.700Z,10.60
2023-04-18T07:40:47.476Z,10.70
2023-04-18T07:43:53.202Z,10.70
2023-04-18T07:46:56.910Z,10.70
2023-04-18T07:50:02.723Z,10.80
2023-04-18T07:53:08.623Z,10.80
2023-04-18T07:56:14.630Z,11.00
2023-04-18T07:59:18.477Z,10.90
2023-04-18T08:02:24.357Z,10.90
2023-04-18T08:05:28.167Z,10.90
2023-04-18T08:08:35.816Z,10.80
2023-04-18T08:11:40.767Z,10.80
2023-04-18T08:14:46.524Z,10.80
2023-04-18T08:17:51.018Z,10.80
2023-04-18T08:20:56.854Z,10.90
2023-04-18T08:24:02.688Z,10.90
2023-04-18T08:27:08.648Z,10.90
2023-04-18T08:30:13.081Z,10.90
2023-04-18T08:33:19.540Z,10.90
2023-04-18T08:36:24.394Z,10.90
2023-04-18T08:39:32.688Z,10.90
2023-04-18T08:42:36.797Z,10.90
2023-04-18T08:45:42.640Z,11.00
2023-04-18T08:48:47.334Z,11.00
2023-04-18T08:51:53.629Z,11.10
2023-04-18T08:54:59.381Z,11.10
2023-04-18T08:58:06.269Z,11.10
2023-04-18T09:01:10.270Z,11.20
2023-04-18T09:04:33.839Z,11.20
2023-04-18T09:07:37.631Z,11.30
2023-04-18T09:10:46.760Z,11.40
2023-04-18T09:13:51.351Z,11.40
2023-04-18T09:16:57.738Z,11.60
2023-04-18T09:20:01.978Z,11.70
2023-04-18T09:23:10.055Z,11.80
2023-04-18T09:26:24.754Z,11.80
2023-04-18T09:29:46.092Z,11.90
2023-04-18T09:32:58.177Z,12.00
2023-04-18T09:36:19.923Z,12.20
2023-04-18T09:39:28.450Z,12.50
2023-04-18T09:42:39.333Z,12.60
2023-04-18T09:45:43.688Z,12.70
2023-04-18T09:48:49.388Z,12.90
2023-04-18T09:51:55.055Z,13.00
2023-04-18T09:55:01.246Z,13.10
2023-04-18T09:58:08.316Z,13.20
2023-04-18T10:01:14.271Z,13.30
2023-04-18T10:04:18.666Z,13.40
2023-04-18T10:07:26.252Z,13.50
2023-04-18T10:10:30.045Z,13.60
2023-04-18T10:13:39.917Z,13.80
2023-04-18T10:16:44.906Z,14.00
2023-04-18T10:20:05.009Z,14.10
2023-04-18T10:23:23.778Z,14.20
2023-04-18T10:26:46.797Z,14.40
2023-04-18T10:29:55.623Z,14.50
2023-04-18T10:33:30.289Z,14.50
2023-04-18T10:36:35.913Z,14.50
2023-04-18T10:39:53.258Z,14.60
2023-04-18T10:42:59.891Z,14.60
2023-04-18T10:46:24.197Z,14.60
2023-04-18T10:49:34.682Z,14.60
2023-04-18T10:52:41.256Z,14.60
2023-04-18T10:55:46.118Z,14.60
2023-04-18T10:58:52.619Z,14.50
2023-04-18T11:01:58.965Z,14.40
2023-04-18T11:05:06.110Z,14.40
2023-04-18T11:08:23.166Z,14.30
2023-04-18T11:11:28.854Z,14.30
2023-04-18T11:14:40.768Z,14.20
2023-04-18T11:17:48.716Z,14.10
2023-04-18T11:20:53.164Z,14.10
2023-04-18T11:23:59.403Z,14.20
2023-04-18T11:27:04.923Z,14.10
2023-04-18T11:30:10.933Z,14.10
2023-04-18T11:33:16.718Z,14.10
2023-04-18T11:36:22.514Z,14.10
2023-04-18T11:39:26.442Z,14.20
2023-04-18T11:42:33.983Z,14.20
2023-04-18T11:45:37.813Z,14.20
2023-04-18T11:48:47.222Z,14.20
2023-04-18T11:51:51.086Z,14.30
2023-04-18T11:54:57.560Z,14.30
2023-04-18T11:58:02.302Z,14.30
2023-04-18T12:01:17.689Z,14.40
2023-04-18T12:04:23.712Z,14.50
2023-04-18T12:07:33.304Z,14.60
2023-04-18T12:10:39.826Z,14.70
2023-04-18T12:13:47.404Z,14.80
2023-04-18T12:16:51.311Z,15.00
2023-04-18T12:20:01.937Z,15.20
2023-04-18T12:23:05.798Z,15.30
2023-04-18T12:26:13.637Z,15.40
2023-04-18T12:29:17.284Z,15.60
2023-04-18T12:32:23.036Z,15.70
2023-04-18T12:35:29.216Z,15.80
2023-04-18T12:38:34.958Z,15.90
2023-04-18T12:41:38.667Z,16.00
2023-04-18T12:44:45.847Z,16.20
2023-04-18T12:47:52.237Z,16.30
2023-04-18T12:50:59.923Z,16.40
2023-04-18T12:54:03.608Z,16.50
2023-04-18T12:57:09.307Z,16.60
2023-04-18T13:00:14.274Z,16.70
2023-04-18T13:03:20.614Z,16.70
2023-04-18T13:06:26.597Z,16.70
2023-04-18T13:09:32.304Z,16.70
2023-04-18T13:12:36.796Z,16.70
2023-04-18T13:15:42.600Z,16.60
2023-04-18T13:18:46.298Z,16.60
2023-04-18T13:21:53.954Z,16.70
2023-04-18T13:24:57.649Z,16.70
2023-04-18T13:28:03.352Z,16.80
2023-04-18T13:31:07.094Z,16.80
2023-04-18T13:34:12.953Z,16.90
2023-04-18T13:37:18.561Z,17.00
2023-04-18T13:40:24.653Z,17.00
2023-04-18T13:43:28.338Z,17.10
2023-04-18T13:46:34.147Z,17.20
2023-04-18T13:49:37.964Z,17.20
2023-04-18T13:52:47.598Z,17.20
2023-04-18T13:55:51.259Z,17.20
2023-04-18T13:58:56.988Z,17.20
2023-04-18T14:02:01.073Z,17.20
2023-04-18T14:05:07.477Z,17.20
2023-04-18T14:08:13.728Z,17.20
2023-04-18T14:11:19.444Z,17.20
2023-04-18T14:14:23.717Z,17.30
2023-04-18T14:17:30.586Z,17.30
2023-04-18T14:20:35.596Z,17.30
2023-04-18T14:23:43.247Z,17.40
2023-04-18T14:26:47.468Z,17.40
2023-04-18T14:29:53.133Z,17.40
2023-04-18T14:32:56.934Z,17.40
2023-04-18T14:36:03.327Z,17.40
2023-04-18T14:39:08.946Z,17.40
2023-04-18T14:42:14.640Z,17.40
2023-04-18T14:45:18.360Z,17.40
2023-04-18T14:48:24.182Z,18.00
2023-04-18T14:51:27.862Z,17.40
2023-04-18T14:54:35.265Z,17.40
2023-04-18T14:57:40.914Z,17.40
2023-04-18T15:00:46.691Z,17.30
2023-04-18T15:03:52.064Z,17.30
2023-04-18T15:06:57.836Z,17.30
2023-04-18T15:10:01.612Z,17.30
2023-04-18T15:13:09.256Z,17.30
2023-04-18T15:16:13.013Z,17.30
2023-04-18T15:19:18.745Z,17.20
2023-04-18T15:22:22.445Z,17.20
2023-04-18T15:25:29.820Z,17.30
2023-04-18T15:28:35.429Z,17.20
2023-04-18T15:31:41.181Z,17.20
2023-04-18T15:34:44.876Z,17.10
2023-04-18T15:37:50.844Z,17.00
2023-04-18T15:40:54.533Z,17.10
2023-04-18T15:44:02.238Z,17.10
2023-04-18T15:47:06.274Z,17.10
2023-04-18T15:50:12.082Z,17.10
2023-04-18T15:53:17.954Z,17.10
2023-04-18T15:56:23.981Z,17.10
2023-04-18T15:59:30.207Z,17.00
2023-04-18T16:02:35.940Z,17.00
2023-04-18T16:05:39.698Z,16.90
2023-04-18T16:08:45.425Z,16.90
2023-04-18T16:11:49.165Z,16.80
2023-04-18T16:14:56.763Z,16.70
2023-04-18T16:18:00.449Z,16.70
2023-04-18T16:21:06.177Z,16.60
2023-04-18T16:24:09.952Z,16.60
2023-04-18T16:27:15.765Z,16.60
2023-04-18T16:30:21.610Z,16.60
2023-04-18T16:33:27.439Z,16.50
2023-04-18T16:36:31.360Z,16.40
2023-04-18T16:39:37.071Z,16.40
2023-04-18T16:42:41.161Z,16.30
2023-04-18T16:45:48.780Z,16.20
2023-04-18T16:48:52.745Z,16.20
2023-04-18T16:51:58.489Z,16.10
2023-04-18T16:55:02.306Z,16.10
2023-04-18T16:58:08.067Z,16.00
2023-04-18T17:01:13.681Z,15.90
2023-04-18T17:04:19.403Z,15.90
2023-04-18T17:07:23.592Z,15.80
2023-04-18T17:10:30.667Z,15.70
2023-04-18T17:13:35.525Z,15.70
2023-04-18T17:16:43.506Z,15.60
2023-04-18T17:19:47.491Z,15.50
2023-04-18T17:22:53.198Z,15.50
2023-04-18T17:25:56.936Z,15.50
2023-04-18T17:29:03.619Z,15.40
2023-04-18T17:32:09.494Z,15.40
2023-04-18T17:35:16.045Z,15.30
2023-04-18T17:38:19.729Z,15.30
2023-04-18T17:41:25.435Z,15.30
2023-04-18T17:44:29.468Z,15.20
2023-04-18T17:47:37.307Z,15.20
2023-04-18T17:50:44.251Z,15.00
2023-04-18T17:53:50.268Z,15.00
2023-04-18T17:56:53.995Z,15.00
2023-04-18T17:59:59.647Z,14.90
2023-04-18T18:03:08.370Z,14.90
2023-04-18T18:06:14.241Z,14.80
2023-04-18T18:09:17.987Z,14.80
2023-04-18T18:12:23.735Z,14.70
2023-04-18T18:15:27.923Z,14.70
2023-04-18T18:18:35.860Z,14.70
2023-04-18T18:21:39.584Z,14.60
2023-04-18T18:24:45.282Z,14.60
2023-04-18T18:27:50.794Z,14.50
2023-04-18T18:30:56.503Z,14.40
2023-04-18T18:34:02.288Z,14.30
2023-04-18T18:37:08.104Z,14.30
2023-04-18T18:40:12.306Z,14.20
2023-04-18T18:43:21.550Z,14.20
2023-04-18T18:46:26.688Z,14.10
2023-04-18T18:49:34.401Z,14.00
2023-04-18T18:52:42.555Z,13.90
2023-04-18T18:55:48.359Z,13.90
2023-04-18T18:58:54.831Z,13.80
2023-04-18T19:02:00.616Z,13.80
2023-04-18T19:05:07.111Z,13.70
2023-04-18T19:08:12.829Z,13.70
2023-04-18T19:11:17.762Z,13.70
2023-04-18T19:14:23.522Z,13.60
2023-04-18T19:17:27.205Z,13.60
2023-04-18T19:20:34.808Z,13.50
2023-04-18T19:23:38.539Z,13.50
2023-04-18T19:26:44.222Z,13.40
2023-04-18T19:29:47.957Z,13.30
2023-04-18T19:32:53.699Z,13.30
2023-04-18T19:36:00.762Z,13.20
2023-04-18T19:39:06.495Z,13.20
2023-04-18T19:42:10.294Z,13.10
2023-04-18T19:45:16.091Z,13.10
2023-04-18T19:48:19.987Z,13.00
2023-04-18T19:51:27.814Z,12.90
2023-04-18T19:54:32.742Z,12.80
2023-04-18T19:57:40.897Z,12.80
2023-04-18T20:00:44.600Z,12.70
2023-04-18T20:03:50.452Z,12.70
2023-04-18T20:06:56.687Z,12.60
2023-04-18T20:10:03.811Z,12.50
2023-04-18T20:13:07.659Z,12.50
2023-04-18T20:16:13.769Z,12.50
2023-04-18T20:19:18.975Z,12.40
2023-04-18T20:22:26.799Z,12.40
2023-04-18T20:25:30.735Z,12.30
2023-04-18T20:28:37.315Z,12.30
2023-04-18T20:31:41.760Z,12.20
2023-04-18T20:34:48.092Z,12.20
2023-04-18T20:37:54.283Z,12.10
2023-04-18T20:41:00.257Z,12.10
2023-04-18T20:44:04.683Z,12.00
2023-04-18T20:47:10.559Z,12.00
2023-04-18T20:50:17.568Z,12.00
2023-04-18T20:53:26.576Z,12.00
2023-04-18T20:56:30.468Z,11.90
2023-04-18T20:59:36.217Z,11.90
2023-04-18T21:02:40.060Z,11.90
2023-04-18T21:05:46.453Z,11.90
2023-04-18T21:08:52.200Z,11.90
2023-04-18T21:11:58.224Z,11.80
2023-04-18T21:15:01.942Z,11.80
2023-04-18T21:18:07.648Z,11.70
2023-04-18T21:21:12.640Z,11.70
2023-04-18T21:24:20.327Z,11.70
2023-04-18T21:27:24.057Z,11.60
2023-04-18T21:30:30.220Z,11.70
2023-04-18T21:33:33.889Z,11.60
2023-04-18T21:36:40.544Z,11.60
2023-04-18T21:39:46.223Z,11.60
2023-04-18T21:42:52.402Z,11.60
2023-04-18T21:45:56.193Z,11.50
2023-04-18T21:49:01.915Z,11.50
2023-04-18T21:52:07.087Z,11.50
2023-04-18T21:55:14.820Z,11.40
2023-04-18T21:58:18.592Z,11.50
2023-04-18T22:01:24.308Z,11.40
2023-04-18T22:04:28.246Z,11.40
2023-04-18T22:07:36.745Z,11.40
2023-04-18T22:10:49.931Z,11.40
2023-04-18T22:13:57.605Z,11.40
2023-04-18T22:17:02.673Z,11.30
2023-04-18T22:20:10.726Z,11.30
2023-04-18T22:23:15.061Z,11.30
2023-04-18T22:26:23.046Z,11.20
2023-04-18T22:29:26.809Z,11.20
2023-04-18T22:32:32.714Z,11.10
2023-04-18T22:35:36.460Z,11.10
2023-04-18T22:38:42.117Z,11.00
2023-04-18T22:41:47.749Z,11.00
2023-04-18T22:44:53.420Z,11.00
2023-04-18T22:47:57.152Z,11.00
2023-04-18T22:51:03.283Z,11.00
2023-04-18T22:54:07.112Z,10.90
2023-04-18T22:57:14.715Z,10.90
2023-04-18T23:00:18.464Z,10.90
2023-04-18T23:03:24.295Z,10.90
2023-04-18T23:06:29.437Z,10.90
2023-04-18T23:09:35.199Z,10.90
2023-04-18T23:12:40.864Z,10.90
2023-04-18T23:15:46.626Z,10.90
2023-04-18T23:18:50.370Z,10.90
2023-04-18T23:21:56.092Z,11.00
2023-04-18T23:24:59.814Z,10.90
2023-04-18T23:28:08.420Z,10.90
2023-04-18T23:31:12.495Z,11.00
2023-04-18T23:34:18.185Z,11.00
2023-04-18T23:37:21.851Z,11.00
2023-04-18T23:40:27.665Z,11.00
2023-04-18T23:43:33.295Z,11.10
2023-04-18T23:46:38.964Z,11.10
2023-04-18T23:49:42.749Z,11.10
2023-04-18T23:52:48.438Z,11.10
2023-04-18T23:55:52.392Z,11.10
2023-04-18T23:59:00.199Z,11.10
